Rocky Mountain House, Canada
Current Conditions -  °F | °C
As of 1:00 AM on Saturday 25 Oct 2014 (Local Time) from CYQF Reporting Station
Clear Clear  
Wind Chill: 27°   Ceiling: Unl
Heat Index: 27°   Visibility: 15mi
Dew Point: 23°   Wind: 3mph
Humidity: 86%   Direction: 190°S
Pressure: 30.04"   Gusts: NA
Location:  52.38°N, 114.93°W
Report Text: CYQF 250700Z 19003KT 15SM SKC M03/M05 A3004 RMK SLP205
Loading
Personal Weather Stations






























Interactive Weather Map
Tropical Storm Tracking
New forecast layout! Learn more

10-Day Weather Forecast

Advertisements
Track Severe Weather on mobile